createdAt,value
2023-07-18T00:01:25.869Z,1.60
2023-07-18T00:05:38.406Z,1.27
2023-07-18T00:09:50.794Z,1.70
2023-07-18T00:14:02.470Z,1.50
2023-07-18T00:18:15.801Z,1.40
2023-07-18T00:22:27.578Z,1.88
2023-07-18T00:26:39.387Z,1.92
2023-07-18T00:30:51.531Z,1.60
2023-07-18T00:35:05.166Z,2.00
2023-07-18T00:39:16.963Z,1.55
2023-07-18T00:43:33.512Z,1.55
2023-07-18T00:47:46.754Z,1.52
2023-07-18T00:51:58.904Z,2.00
2023-07-18T00:56:10.960Z,1.70
2023-07-18T01:00:24.306Z,1.95
2023-07-18T01:04:38.181Z,1.60
2023-07-18T01:08:51.705Z,1.90
2023-07-18T01:13:03.424Z,1.60
2023-07-18T01:17:15.129Z,1.95
2023-07-18T01:21:26.830Z,1.63
2023-07-18T01:25:39.365Z,1.70
2023-07-18T01:29:52.708Z,1.75
2023-07-18T01:34:05.815Z,1.70
2023-07-18T01:38:17.596Z,1.90
2023-07-18T01:42:29.292Z,2.05
2023-07-18T01:46:41.154Z,1.90
2023-07-18T01:50:53.436Z,1.80
2023-07-18T01:55:10.852Z,1.67
2023-07-18T01:59:23.423Z,1.92
2023-07-18T02:03:35.278Z,1.75
2023-07-18T02:07:48.933Z,1.80
2023-07-18T02:12:01.508Z,1.67
2023-07-18T02:16:13.201Z,1.98
2023-07-18T02:20:24.879Z,1.90
2023-07-18T02:24:36.577Z,1.73
2023-07-18T02:28:48.988Z,1.90
2023-07-18T02:33:00.699Z,1.92
2023-07-18T02:37:12.614Z,1.75
2023-07-18T02:41:24.378Z,2.10
2023-07-18T02:45:36.050Z,2.20
2023-07-18T02:49:47.848Z,1.65
2023-07-18T02:53:59.550Z,1.98
2023-07-18T02:58:14.665Z,2.03
2023-07-18T03:02:26.782Z,1.95
2023-07-18T03:06:38.534Z,1.90
2023-07-18T03:10:50.296Z,1.90
2023-07-18T03:15:02.730Z,2.40
2023-07-18T03:19:15.499Z,1.90
2023-07-18T03:23:27.650Z,2.30
2023-07-18T03:27:39.548Z,2.00
2023-07-18T03:31:51.850Z,2.03
2023-07-18T03:36:06.215Z,1.92
2023-07-18T03:40:18.227Z,2.50
2023-07-18T03:44:29.990Z,2.55
2023-07-18T03:48:41.814Z,2.13
2023-07-18T03:52:53.538Z,1.88
2023-07-18T03:57:05.575Z,2.30
2023-07-18T04:01:17.705Z,2.10
2023-07-18T04:05:29.816Z,2.55
2023-07-18T04:09:41.622Z,2.20
2023-07-18T04:13:53.327Z,2.40
2023-07-18T04:18:05.484Z,2.30
2023-07-18T04:22:17.562Z,2.17
2023-07-18T04:26:29.271Z,2.45
2023-07-18T04:30:40.942Z,2.10
2023-07-18T04:34:52.616Z,2.28
2023-07-18T04:39:05.036Z,2.35
2023-07-18T04:43:16.754Z,2.40
2023-07-18T04:47:29.893Z,2.30
2023-07-18T04:51:41.726Z,2.47
2023-07-18T04:55:53.522Z,2.30
2023-07-18T05:00:06.835Z,2.35
2023-07-18T05:04:19.136Z,2.38
2023-07-18T05:08:30.922Z,2.28
2023-07-18T05:12:42.947Z,2.40
2023-07-18T05:16:54.639Z,2.80
2023-07-18T05:21:06.252Z,2.65
2023-07-18T05:25:18.640Z,2.92
2023-07-18T05:29:30.322Z,2.65
2023-07-18T05:33:42.613Z,2.40
2023-07-18T05:37:54.326Z,2.47
2023-07-18T05:42:31.644Z,2.95
2023-07-18T05:46:43.480Z,2.67
2023-07-18T05:50:56.990Z,2.58
2023-07-18T05:55:09.546Z,2.78
2023-07-18T05:59:21.336Z,3.15
2023-07-18T06:03:33.281Z,2.60
2023-07-18T06:07:45.079Z,2.88
2023-07-18T06:11:56.877Z,2.50
2023-07-18T06:16:09.859Z,3.47
2023-07-18T06:20:21.552Z,2.78
2023-07-18T06:24:33.281Z,3.28
2023-07-18T06:28:44.956Z,3.00
2023-07-18T06:32:56.818Z,2.83
2023-07-18T06:37:11.371Z,2.92
2023-07-18T06:41:23.509Z,2.88
2023-07-18T06:45:35.171Z,2.83
2023-07-18T06:49:47.169Z,2.40
2023-07-18T06:53:58.876Z,2.78
2023-07-18T06:58:10.907Z,2.70
2023-07-18T07:02:22.694Z,2.83
2023-07-18T07:06:34.453Z,2.40
2023-07-18T07:10:46.594Z,2.72
2023-07-18T07:14:58.315Z,2.53
2023-07-18T07:19:09.999Z,2.88
2023-07-18T07:23:22.078Z,2.38
2023-07-18T07:27:33.762Z,2.50
2023-07-18T07:31:45.507Z,2.67
2023-07-18T07:35:57.257Z,3.35
2023-07-18T07:40:12.476Z,2.72
2023-07-18T07:44:24.552Z,3.00
2023-07-18T07:48:36.340Z,2.78
2023-07-18T07:52:48.078Z,2.50
2023-07-18T07:56:59.842Z,2.63
2023-07-18T08:01:11.528Z,2.63
2023-07-18T08:05:24.069Z,2.75
2023-07-18T08:09:36.071Z,1.77
2023-07-18T08:13:48.225Z,2.10
2023-07-18T08:18:01.353Z,2.28
2023-07-18T08:22:13.097Z,2.20
2023-07-18T08:26:24.769Z,2.42
2023-07-18T08:30:36.509Z,1.85
2023-07-18T08:34:48.185Z,2.40
2023-07-18T08:38:59.924Z,1.83
2023-07-18T08:43:15.938Z,2.13
2023-07-18T08:47:28.499Z,1.98
2023-07-18T08:51:40.281Z,1.88
2023-07-18T08:55:52.080Z,1.40
2023-07-18T09:00:05.959Z,1.50
2023-07-18T09:04:18.987Z,1.58
2023-07-18T09:08:44.813Z,1.60
2023-07-18T09:13:02.256Z,1.75
2023-07-18T09:17:13.923Z,1.20
2023-07-18T09:21:25.833Z,1.40
2023-07-18T09:25:41.369Z,1.30
2023-07-18T09:29:53.338Z,1.35
2023-07-18T09:34:13.355Z,1.30
2023-07-18T09:38:26.821Z,1.50
2023-07-18T09:42:45.248Z,1.52
2023-07-18T09:46:59.484Z,1.38
2023-07-18T09:51:15.626Z,1.30
2023-07-18T09:55:28.445Z,1.50
2023-07-18T09:59:41.175Z,1.23
2023-07-18T10:03:55.527Z,1.67
2023-07-18T10:08:08.874Z,1.25
2023-07-18T10:12:21.223Z,1.08
2023-07-18T10:16:36.409Z,1.60
2023-07-18T10:21:01.728Z,1.52
2023-07-18T10:25:13.438Z,1.00
2023-07-18T10:29:25.109Z,1.52
2023-07-18T10:33:36.837Z,1.30
2023-07-18T10:38:04.209Z,1.13
2023-07-18T10:42:27.452Z,1.27
2023-07-18T10:46:39.928Z,1.17
2023-07-18T10:50:51.736Z,1.10
2023-07-18T10:55:08.317Z,1.40
2023-07-18T10:59:20.984Z,1.10
2023-07-18T11:03:37.132Z,1.50
2023-07-18T11:07:49.565Z,1.38
2023-07-18T11:12:01.464Z,1.10
2023-07-18T11:16:17.175Z,1.00
2023-07-18T11:20:29.299Z,1.38
2023-07-18T11:24:43.326Z,1.45
2023-07-18T11:28:58.102Z,1.48
2023-07-18T11:33:14.503Z,1.00
2023-07-18T11:37:26.835Z,1.20
2023-07-18T11:41:41.030Z,1.10
2023-07-18T11:45:56.917Z,1.35
2023-07-18T11:50:14.106Z,1.02
2023-07-18T11:54:28.008Z,1.00
2023-07-18T11:58:39.677Z,1.40
2023-07-18T12:02:51.530Z,1.40
2023-07-18T12:07:03.357Z,1.10
2023-07-18T12:11:15.387Z,1.23
2023-07-18T12:15:28.189Z,1.17
2023-07-18T12:19:40.183Z,1.10
2023-07-18T12:23:51.852Z,1.05
2023-07-18T12:28:09.949Z,1.35
2023-07-18T12:32:54.227Z,0.90
2023-07-18T12:37:12.462Z,1.20
2023-07-18T12:41:25.948Z,1.20
2023-07-18T12:45:37.561Z,0.98
2023-07-18T12:54:03.897Z,1.20
2023-07-18T12:58:15.555Z,1.10
2023-07-18T13:02:27.177Z,1.20
2023-07-18T13:06:38.933Z,1.00
2023-07-18T13:10:50.544Z,0.88
2023-07-18T13:15:02.192Z,0.80
2023-07-18T13:19:13.870Z,0.90
2023-07-18T13:23:25.671Z,1.50
2023-07-18T13:27:39.814Z,0.88
2023-07-18T13:31:53.040Z,1.17
2023-07-18T13:36:06.122Z,1.10
2023-07-18T13:40:17.701Z,0.93
2023-07-18T13:44:29.306Z,1.25
2023-07-18T13:48:41.762Z,1.00
2023-07-18T13:52:53.638Z,1.20
2023-07-18T13:57:05.621Z,1.13
2023-07-18T14:01:17.364Z,1.27
2023-07-18T14:05:29.853Z,1.02
2023-07-18T14:09:41.912Z,1.02
2023-07-18T14:13:53.583Z,1.10
2023-07-18T14:18:05.259Z,0.90
2023-07-18T14:22:19.613Z,1.20
2023-07-18T14:26:31.288Z,0.98
2023-07-18T14:30:43.476Z,0.95
2023-07-18T14:34:55.175Z,1.02
2023-07-18T14:39:06.865Z,1.20
2023-07-18T14:43:29.095Z,1.42
2023-07-18T14:47:40.883Z,0.73
2023-07-18T14:51:52.697Z,1.10
2023-07-18T14:56:05.201Z,1.10
2023-07-18T15:00:19.661Z,1.08
2023-07-18T15:04:31.373Z,0.95
2023-07-18T15:08:43.095Z,1.27
2023-07-18T15:12:54.752Z,0.93
2023-07-18T15:17:06.530Z,1.00
2023-07-18T15:21:18.211Z,1.00
2023-07-18T15:25:31.491Z,0.95
2023-07-18T15:29:44.267Z,1.00
2023-07-18T15:33:56.012Z,1.10
2023-07-18T15:38:07.659Z,0.80
2023-07-18T15:42:20.170Z,1.23
2023-07-18T15:46:31.906Z,1.23
2023-07-18T15:50:43.692Z,0.90
2023-07-18T15:54:55.308Z,1.00
2023-07-18T15:59:07.250Z,0.77
2023-07-18T16:03:19.673Z,1.00
2023-07-18T16:07:31.478Z,1.00
2023-07-18T16:11:43.136Z,1.20
2023-07-18T16:15:55.053Z,1.10
2023-07-18T16:20:07.367Z,1.08
2023-07-18T16:24:19.117Z,0.80
2023-07-18T16:28:30.800Z,1.05
2023-07-18T16:32:42.587Z,1.08
2023-07-18T16:36:56.432Z,1.08
2023-07-18T16:41:08.487Z,1.15
2023-07-18T16:45:20.418Z,0.95
2023-07-18T16:49:32.180Z,1.25
2023-07-18T16:53:44.176Z,0.93
2023-07-18T16:57:55.852Z,1.20
2023-07-18T17:02:07.508Z,1.30
2023-07-18T17:06:19.431Z,1.02
2023-07-18T17:10:31.296Z,0.70
2023-07-18T17:14:42.910Z,1.05
2023-07-18T17:18:54.699Z,1.05
2023-07-18T17:23:07.350Z,1.45
2023-07-18T17:27:19.036Z,1.20
2023-07-18T17:31:32.301Z,0.90
2023-07-18T17:35:44.409Z,0.90
2023-07-18T17:39:56.447Z,1.00
2023-07-18T17:44:10.886Z,1.10
2023-07-18T17:48:24.755Z,0.98
2023-07-18T17:52:42.825Z,1.00
2023-07-18T17:57:06.867Z,1.20
2023-07-18T18:01:21.969Z,0.80
2023-07-18T18:05:48.405Z,0.95
2023-07-18T18:10:08.086Z,1.08
2023-07-18T18:14:19.846Z,1.10
2023-07-18T18:18:32.158Z,1.15
2023-07-18T18:22:43.990Z,1.10
2023-07-18T18:26:55.736Z,0.80
2023-07-18T18:31:07.553Z,0.95
2023-07-18T18:35:19.460Z,1.10
2023-07-18T18:39:31.174Z,1.10
2023-07-18T18:43:42.937Z,1.27
2023-07-18T18:47:54.600Z,1.23
2023-07-18T18:52:06.612Z,1.27
2023-07-18T18:56:19.005Z,1.27
2023-07-18T19:00:30.975Z,1.75
2023-07-18T19:04:43.138Z,1.40
2023-07-18T19:08:55.587Z,1.50
2023-07-18T19:13:07.328Z,1.60
2023-07-18T19:17:19.022Z,1.52
2023-07-18T19:21:30.690Z,1.17
2023-07-18T19:25:42.419Z,1.40
2023-07-18T19:29:54.095Z,1.40
2023-07-18T19:34:05.742Z,1.20
2023-07-18T19:38:17.338Z,1.10
2023-07-18T19:42:28.925Z,1.30
2023-07-18T19:46:40.626Z,0.95
2023-07-18T19:50:52.421Z,1.20
2023-07-18T19:55:04.213Z,1.20
2023-07-18T19:59:15.755Z,1.10
2023-07-18T20:03:27.534Z,1.50
2023-07-18T20:07:40.027Z,1.20
2023-07-18T20:11:51.809Z,1.23
2023-07-18T20:16:04.598Z,1.23
2023-07-18T20:20:16.308Z,1.15
2023-07-18T20:24:28.093Z,1.27
2023-07-18T20:28:39.715Z,1.63
2023-07-18T20:32:51.367Z,1.50
2023-07-18T20:37:03.687Z,1.10
2023-07-18T20:41:15.277Z,1.05
2023-07-18T20:45:27.078Z,1.23
2023-07-18T20:49:39.333Z,1.48
2023-07-18T20:53:52.679Z,1.42
2023-07-18T20:58:04.306Z,1.70
2023-07-18T21:02:16.055Z,1.10
2023-07-18T21:06:27.785Z,1.50
2023-07-18T21:10:39.648Z,1.50
2023-07-18T21:14:51.390Z,1.42
2023-07-18T21:19:03.155Z,1.10
2023-07-18T21:23:14.977Z,1.17
2023-07-18T21:27:26.760Z,1.20
2023-07-18T21:31:38.493Z,1.40
2023-07-18T21:35:50.313Z,1.10
2023-07-18T21:40:01.971Z,1.35
2023-07-18T21:44:14.083Z,1.45
2023-07-18T21:48:26.027Z,1.27
2023-07-18T21:52:38.081Z,1.08
2023-07-18T21:56:49.842Z,1.10
2023-07-18T22:01:01.666Z,1.63
2023-07-18T22:05:13.515Z,1.17
2023-07-18T22:09:25.526Z,1.48
2023-07-18T22:13:37.310Z,1.75
2023-07-18T22:17:49.121Z,1.20
2023-07-18T22:22:00.851Z,1.55
2023-07-18T22:26:14.980Z,1.23
2023-07-18T22:30:26.800Z,1.20
2023-07-18T22:34:38.590Z,1.20
2023-07-18T22:38:50.296Z,1.20
2023-07-18T22:43:02.046Z,0.98
2023-07-18T22:47:14.238Z,1.42
2023-07-18T22:51:26.372Z,1.77
2023-07-18T22:55:38.244Z,1.23
2023-07-18T22:59:49.950Z,1.30
2023-07-18T23:04:01.682Z,1.17
2023-07-18T23:08:13.378Z,1.42
2023-07-18T23:12:25.071Z,1.40
2023-07-18T23:16:36.803Z,1.27
2023-07-18T23:20:48.647Z,1.38
2023-07-18T23:25:00.519Z,1.33
2023-07-18T23:29:12.312Z,1.50
2023-07-18T23:33:23.969Z,1.30
2023-07-18T23:37:35.663Z,1.70
2023-07-18T23:41:47.343Z,1.38
2023-07-18T23:45:59.176Z,1.70
2023-07-18T23:50:10.905Z,1.27
2023-07-18T23:54:22.965Z,1.48
2023-07-18T23:58:34.820Z,1.20
